createdAt,value
2019-02-25T00:00:07.614Z,2.10
2019-02-25T00:05:11.453Z,2.00
2019-02-25T00:10:14.958Z,2.00
2019-02-25T00:15:18.526Z,2.00
2019-02-25T00:20:21.968Z,2.00
2019-02-25T00:25:25.893Z,2.00
2019-02-25T00:30:29.625Z,1.90
2019-02-25T00:35:33.114Z,1.90
2019-02-25T00:40:36.443Z,1.90
2019-02-25T00:45:40.190Z,2.00
2019-02-25T00:50:43.752Z,1.90
2019-02-25T00:55:47.509Z,1.90
2019-02-25T01:00:50.852Z,1.90
2019-02-25T01:05:54.167Z,1.80
2019-02-25T01:10:57.327Z,1.90
2019-02-25T01:16:00.560Z,1.80
2019-02-25T01:21:03.660Z,1.70
2019-02-25T01:26:06.752Z,1.70
2019-02-25T01:31:10.629Z,1.70
2019-02-25T01:36:14.243Z,1.80
2019-02-25T01:41:18.862Z,1.80
2019-02-25T01:46:22.897Z,1.70
2019-02-25T01:51:27.479Z,1.70
2019-02-25T01:56:47.392Z,1.70
2019-02-25T02:01:50.786Z,1.60
2019-02-25T02:06:54.424Z,1.70
2019-02-25T02:12:00.555Z,1.70
2019-02-25T02:17:04.704Z,1.70
2019-02-25T02:22:08.129Z,1.70
2019-02-25T02:27:12.527Z,1.70
2019-02-25T02:32:16.139Z,1.70
2019-02-25T02:37:19.844Z,1.60
2019-02-25T02:42:22.985Z,1.60
2019-02-25T02:48:04.168Z,1.60
2019-02-25T02:53:10.501Z,1.60
2019-02-25T02:58:13.927Z,1.60
2019-02-25T03:03:17.281Z,1.50
2019-02-25T03:08:20.752Z,1.50
2019-02-25T03:13:24.930Z,1.50
2019-02-25T03:18:28.394Z,1.50
2019-02-25T03:23:32.584Z,1.50
2019-02-25T03:28:37.896Z,1.50
2019-02-25T03:33:41.126Z,1.60
2019-02-25T03:38:44.974Z,1.60
2019-02-25T03:43:48.706Z,1.60
2019-02-25T03:48:55.171Z,1.50
2019-02-25T03:53:58.824Z,1.60
2019-02-25T03:59:04.544Z,1.60
2019-02-25T04:04:10.986Z,1.60
2019-02-25T04:09:14.777Z,1.50
2019-02-25T04:14:17.895Z,1.50
2019-02-25T04:19:22.314Z,1.50
2019-02-25T04:24:25.675Z,1.50
2019-02-25T04:29:29.028Z,1.40
2019-02-25T04:34:32.310Z,1.50
2019-02-25T04:39:35.965Z,1.50
2019-02-25T04:44:40.363Z,1.40
2019-02-25T04:49:43.813Z,1.40
2019-02-25T04:54:47.440Z,1.40
2019-02-25T04:59:51.163Z,1.30
2019-02-25T05:04:58.310Z,1.30
2019-02-25T05:10:02.029Z,1.30
2019-02-25T05:15:06.488Z,1.20
2019-02-25T05:20:09.933Z,1.20
2019-02-25T05:25:13.050Z,1.20
2019-02-25T05:30:16.470Z,1.10
2019-02-25T05:35:19.760Z,1.20
2019-02-25T05:40:23.132Z,1.10
2019-02-25T05:45:26.561Z,1.20
2019-02-25T05:50:29.762Z,1.20
2019-02-25T05:55:33.355Z,1.30
2019-02-25T06:00:37.100Z,1.30
2019-02-25T06:05:40.935Z,1.40
2019-02-25T06:10:44.754Z,1.40
2019-02-25T06:15:48.157Z,1.50
2019-02-25T06:20:52.517Z,1.50
2019-02-25T06:25:56.077Z,1.60
2019-02-25T06:31:00.533Z,1.70
2019-02-25T06:36:05.017Z,1.80
2019-02-25T06:41:10.241Z,1.90
2019-02-25T06:46:13.413Z,1.90
2019-02-25T06:51:16.858Z,2.00
2019-02-25T06:56:20.488Z,2.00
2019-02-25T07:01:24.255Z,2.00
2019-02-25T07:06:38.759Z,2.10
2019-02-25T07:12:00.139Z,2.20
2019-02-25T07:17:22.673Z,2.30
2019-02-25T07:22:42.666Z,2.40
2019-02-25T07:27:55.336Z,2.50
2019-02-25T07:33:16.927Z,2.70
2019-02-25T07:38:39.714Z,3.00
2019-02-25T07:44:14.515Z,3.10
2019-02-25T07:49:40.004Z,3.10
2019-02-25T07:55:01.348Z,3.10
2019-02-25T08:00:14.549Z,3.10
2019-02-25T08:05:47.273Z,3.20
2019-02-25T08:11:03.807Z,3.20
2019-02-25T08:16:30.317Z,3.20
2019-02-25T08:21:45.475Z,3.40
2019-02-25T08:27:05.617Z,3.80
2019-02-25T08:32:34.556Z,4.10
2019-02-25T08:38:08.603Z,4.20
2019-02-25T08:43:35.158Z,4.40
2019-02-25T08:48:52.918Z,4.80
2019-02-25T08:53:55.887Z,4.80
2019-02-25T08:58:59.145Z,4.80
2019-02-25T09:04:05.231Z,5.20
2019-02-25T09:09:09.931Z,5.10
2019-02-25T09:14:13.424Z,5.60
2019-02-25T09:19:16.555Z,5.60
2019-02-25T09:24:20.544Z,5.90
2019-02-25T09:29:24.089Z,6.00
2019-02-25T09:34:27.405Z,5.80
2019-02-25T09:39:31.310Z,5.80
2019-02-25T09:44:38.072Z,6.20
2019-02-25T09:49:43.276Z,6.20
2019-02-25T09:54:46.508Z,6.60
2019-02-25T09:59:50.098Z,6.50
2019-02-25T10:04:53.541Z,6.80
2019-02-25T10:09:57.301Z,6.90
2019-02-25T10:15:00.920Z,7.00
2019-02-25T10:20:06.729Z,7.00
2019-02-25T10:25:10.428Z,7.00
2019-02-25T10:30:14.020Z,7.20
2019-02-25T10:35:18.121Z,7.30
2019-02-25T10:40:24.591Z,7.70
2019-02-25T10:45:27.322Z,7.60
2019-02-25T10:50:31.099Z,7.80
2019-02-25T10:55:48.833Z,8.00
2019-02-25T11:00:51.938Z,8.30
2019-02-25T11:05:56.409Z,8.40
2019-02-25T11:11:07.977Z,8.50
2019-02-25T11:16:12.307Z,8.50
2019-02-25T11:21:17.871Z,8.40
2019-02-25T11:26:23.725Z,8.70
2019-02-25T11:31:29.189Z,8.80
2019-02-25T11:36:36.070Z,8.90
2019-02-25T11:41:41.197Z,9.10
2019-02-25T11:46:44.473Z,9.60
2019-02-25T11:51:47.435Z,9.90
2019-02-25T11:56:51.650Z,9.90
2019-02-25T12:01:55.647Z,10.20
2019-02-25T12:07:00.342Z,10.40
2019-02-25T12:12:03.530Z,10.30
2019-02-25T12:17:06.869Z,10.20
2019-02-25T12:22:10.658Z,10.20
2019-02-25T12:27:15.871Z,10.70
2019-02-25T12:32:19.931Z,10.90
2019-02-25T12:37:23.007Z,10.80
2019-02-25T12:47:32.087Z,11.50
2019-02-25T12:52:36.051Z,11.60
2019-02-25T12:57:41.383Z,11.70
2019-02-25T13:02:44.626Z,11.70
2019-02-25T13:07:48.262Z,11.30
2019-02-25T13:12:51.975Z,10.90
2019-02-25T13:17:55.654Z,10.40
2019-02-25T13:22:59.354Z,10.10
2019-02-25T13:28:04.243Z,10.20
2019-02-25T13:33:10.698Z,10.30
2019-02-25T13:38:14.542Z,10.50
2019-02-25T13:43:18.380Z,10.40
2019-02-25T13:48:23.585Z,10.50
2019-02-25T13:53:26.896Z,10.60
2019-02-25T13:58:30.801Z,10.50
2019-02-25T14:03:34.081Z,10.60
2019-02-25T14:08:40.750Z,10.90
2019-02-25T14:13:46.639Z,10.50
2019-02-25T14:18:51.302Z,10.50
2019-02-25T14:23:57.664Z,10.30
2019-02-25T14:29:01.459Z,10.30
2019-02-25T14:34:04.804Z,10.20
2019-02-25T14:39:25.008Z,10.00
2019-02-25T14:44:27.178Z,10.00
2019-02-25T14:49:32.200Z,10.20
2019-02-25T14:54:38.002Z,10.00
2019-02-25T14:59:41.213Z,9.80
2019-02-25T15:04:46.402Z,9.30
2019-02-25T15:09:50.016Z,9.30
2019-02-25T15:14:53.464Z,9.10
2019-02-25T15:19:56.566Z,9.00
2019-02-25T15:25:00.553Z,9.00
2019-02-25T15:30:07.018Z,8.90
2019-02-25T15:35:11.301Z,8.70
2019-02-25T15:40:18.203Z,8.40
2019-02-25T15:45:20.415Z,8.20
2019-02-25T15:50:23.728Z,8.10
2019-02-25T15:55:27.693Z,7.90
2019-02-25T16:00:34.296Z,7.60
2019-02-25T16:05:38.753Z,7.50
2019-02-25T16:10:42.598Z,7.00
2019-02-25T16:15:47.437Z,6.90
2019-02-25T16:20:51.277Z,7.00
2019-02-25T16:25:55.330Z,6.70
2019-02-25T16:31:03.834Z,6.50
2019-02-25T16:36:07.923Z,6.10
2019-02-25T16:41:12.664Z,6.20
2019-02-25T16:51:21.134Z,5.80
2019-02-25T16:56:24.502Z,5.80
2019-02-25T17:01:29.959Z,5.70
2019-02-25T17:06:36.556Z,5.60
2019-02-25T17:11:42.232Z,5.40
2019-02-25T17:16:46.251Z,5.40
2019-02-25T17:21:49.846Z,5.40
2019-02-25T17:26:52.968Z,5.40
2019-02-25T17:32:10.661Z,5.50
2019-02-25T17:37:15.377Z,5.50
2019-02-25T17:42:20.877Z,5.60
2019-02-25T17:47:28.609Z,5.60
2019-02-25T17:52:32.416Z,5.60
2019-02-25T17:57:37.387Z,5.60
2019-02-25T18:02:41.162Z,5.60
2019-02-25T18:07:46.377Z,5.50
2019-02-25T18:12:50.171Z,5.50
2019-02-25T18:17:53.652Z,5.50
2019-02-25T18:22:58.799Z,5.40
2019-02-25T18:28:06.322Z,5.30
2019-02-25T18:33:10.462Z,5.20
2019-02-25T18:38:31.564Z,5.10
2019-02-25T18:43:40.868Z,5.10
2019-02-25T18:48:45.397Z,5.10
2019-02-25T18:53:52.673Z,5.00
2019-02-25T18:59:07.131Z,4.80
2019-02-25T19:04:01.285Z,4.80
2019-02-25T19:09:08.059Z,4.70
2019-02-25T19:14:11.252Z,4.60
2019-02-25T19:19:17.120Z,4.60
2019-02-25T19:24:21.249Z,4.60
2019-02-25T19:29:25.990Z,4.50
2019-02-25T19:34:30.740Z,4.40
2019-02-25T19:39:39.185Z,4.30
2019-02-25T19:44:44.168Z,4.40
2019-02-25T19:49:47.179Z,4.40
2019-02-25T19:54:50.928Z,4.40
2019-02-25T19:59:56.170Z,4.40
2019-02-25T20:05:01.169Z,4.30
2019-02-25T20:10:06.259Z,4.20
2019-02-25T20:15:25.253Z,4.20
2019-02-25T20:20:36.450Z,3.40
2019-02-25T20:25:44.419Z,4.10
2019-02-25T20:30:53.713Z,4.10
2019-02-25T20:36:00.544Z,4.30
2019-02-25T20:41:03.970Z,4.40
2019-02-25T20:46:08.706Z,4.50
2019-02-25T20:51:12.158Z,4.50
2019-02-25T20:56:16.532Z,4.50
2019-02-25T21:01:20.940Z,4.50
2019-02-25T21:06:27.817Z,4.50
2019-02-25T21:11:31.210Z,4.40
2019-02-25T21:16:36.872Z,4.40
2019-02-25T21:21:41.499Z,4.30
2019-02-25T21:26:44.562Z,4.20
2019-02-25T21:31:53.759Z,4.20
2019-02-25T21:36:56.264Z,4.20
2019-02-25T21:42:01.029Z,4.30
2019-02-25T21:47:06.524Z,4.30
2019-02-25T21:52:13.029Z,4.40
2019-02-25T21:57:18.855Z,4.60
2019-02-25T22:02:24.354Z,4.60
2019-02-25T22:07:29.370Z,4.70
2019-02-25T22:12:35.268Z,4.80
2019-02-25T22:17:40.711Z,4.80
2019-02-25T22:22:46.793Z,4.90
2019-02-25T22:27:52.935Z,4.90
2019-02-25T22:32:56.171Z,5.00
2019-02-25T22:38:02.702Z,4.90
2019-02-25T22:43:10.039Z,4.80
2019-02-25T22:48:14.539Z,4.70
2019-02-25T22:53:25.947Z,4.70
2019-02-25T22:58:29.042Z,5.30
2019-02-25T23:03:32.996Z,4.60
2019-02-25T23:08:40.101Z,4.60
2019-02-25T23:13:43.856Z,4.70
2019-02-25T23:18:50.568Z,4.70
2019-02-25T23:23:55.893Z,4.70
2019-02-25T23:29:00.477Z,4.80
2019-02-25T23:34:05.599Z,4.70
2019-02-25T23:39:09.701Z,4.70
2019-02-25T23:44:17.340Z,4.60
2019-02-25T23:49:27.338Z,4.50
2019-02-25T23:54:27.978Z,4.40
2019-02-25T23:59:33.210Z,4.30
